Time,TemperatureF,DewpointF,PressureIn,WindDirection,WindDirectionDegrees,WindSpeedMPH,WindSpeedGustMPH,Humidity,HourlyPrecipIn,Conditions,Clouds,dailyrainin,SoftwareType,DateUTC
2013-04-26 00:00:00,35.5,25.3,-100.00,North,-999,-999.0,-999.0,66,-99.99,,,-99.99,,2013-04-26 04:00:00,
2013-04-26 00:10:00,35.5,25.7,-100.00,North,-999,-999.0,-999.0,67,-99.99,,,-99.99,,2013-04-26 04:10:00,
2013-04-26 00:20:00,35.5,25.7,-100.00,North,-999,-999.0,-999.0,67,-99.99,,,-99.99,,2013-04-26 04:20:00,
2013-04-26 00:30:00,35.5,25.7,-100.00,North,-999,-999.0,-999.0,67,-99.99,,,-99.99,,2013-04-26 04:30:00,
2013-04-26 00:40:00,35.3,25.5,-100.00,North,-999,-999.0,-999.0,67,-99.99,,,-99.99,,2013-04-26 04:40:00,
2013-04-26 00:50:00,35.3,25.2,-100.00,North,-999,-999.0,-999.0,66,-99.99,,,-99.99,,2013-04-26 04:50:00,
2013-04-26 01:00:00,34.7,25.2,-100.00,North,-999,-999.0,-999.0,68,-99.99,,,-99.99,,2013-04-26 05:00:00,
2013-04-26 01:10:00,34.6,25.5,-100.00,North,-999,-999.0,-999.0,69,-99.99,,,-99.99,,2013-04-26 05:10:00,
2013-04-26 01:20:00,35.3,25.2,-100.00,North,-999,-999.0,-999.0,66,-99.99,,,-99.99,,2013-04-26 05:20:00,
2013-04-26 01:30:00,35.1,25.0,-100.00,North,-999,-999.0,-999.0,66,-99.99,,,-99.99,,2013-04-26 05:30:00,
2013-04-26 01:40:00,34.6,25.2,-100.00,North,-999,-999.0,-999.0,68,-99.99,,,-99.99,,2013-04-26 05:40:00,
2013-04-26 01:50:00,36.0,25.0,-100.00,North,-999,-999.0,-999.0,64,-99.99,,,-99.99,,2013-04-26 05:50:00,
2013-04-26 02:00:00,35.1,24.6,-100.00,North,-999,-999.0,-999.0,65,-99.99,,,-99.99,,2013-04-26 06:00:00,
2013-04-26 02:10:00,35.6,25.0,-100.00,North,-999,-999.0,-999.0,65,-99.99,,,-99.99,,2013-04-26 06:10:00,
2013-04-26 02:20:00,35.5,24.3,-100.00,North,-999,-999.0,-999.0,63,-99.99,,,-99.99,,2013-04-26 06:20:00,
2013-04-26 02:30:00,34.9,23.9,-100.00,North,-999,-999.0,-999.0,64,-99.99,,,-99.99,,2013-04-26 06:30:00,
2013-04-26 02:40:00,35.3,24.4,-100.00,North,-999,-999.0,-999.0,64,-99.99,,,-99.99,,2013-04-26 06:40:00,
2013-04-26 02:50:00,34.7,24.1,-100.00,North,-999,-999.0,-999.0,65,-99.99,,,-99.99,,2013-04-26 06:50:00,
2013-04-26 03:00:00,34.0,24.6,-100.00,North,-999,-999.0,-999.0,68,-99.99,,,-99.99,,2013-04-26 07:00:00,
2013-04-26 03:10:00,33.8,24.8,-100.00,North,-999,-999.0,-999.0,69,-99.99,,,-99.99,,2013-04-26 07:10:00,
2013-04-26 03:20:00,33.7,25.0,-100.00,North,-999,-999.0,-999.0,70,-99.99,,,-99.99,,2013-04-26 07:20:00,
2013-04-26 03:30:00,34.0,25.0,-100.00,North,-999,-999.0,-999.0,69,-99.99,,,-99.99,,2013-04-26 07:30:00,
2013-04-26 03:40:00,34.0,25.0,-100.00,North,-999,-999.0,-999.0,69,-99.99,,,-99.99,,2013-04-26 07:40:00,
2013-04-26 03:50:00,33.8,25.0,-100.00,North,-999,-999.0,-999.0,70,-99.99,,,-99.99,,2013-04-26 07:50:00,
2013-04-26 04:00:00,34.2,25.5,-100.00,North,-999,-999.0,-999.0,70,-99.99,,,-99.99,,2013-04-26 08:00:00,
2013-04-26 04:10:00,36.2,26.2,-100.00,North,-999,-999.0,-999.0,67,-99.99,,,-99.99,,2013-04-26 08:10:00,
2013-04-26 04:20:00,34.4,25.3,-100.00,North,-999,-999.0,-999.0,69,-99.99,,,-99.99,,2013-04-26 08:20:00,
2013-04-26 04:30:00,35.1,25.7,-100.00,North,-999,-999.0,-999.0,68,-99.99,,,-99.99,,2013-04-26 08:30:00,
2013-04-26 04:40:00,37.3,26.6,-100.00,North,-999,-999.0,-999.0,65,-99.99,,,-99.99,,2013-04-26 08:40:00,
2013-04-26 04:50:00,35.6,25.3,-100.00,North,-999,-999.0,-999.0,66,-99.99,,,-99.99,,2013-04-26 08:50:00,
2013-04-26 05:00:00,34.7,25.2,-100.00,North,-999,-999.0,-999.0,68,-99.99,,,-99.99,,2013-04-26 09:00:00,
2013-04-26 05:10:00,35.6,25.7,-100.00,North,-999,-999.0,-999.0,67,-99.99,,,-99.99,,2013-04-26 09:10:00,
2013-04-26 05:20:00,36.9,26.2,-100.00,North,-999,-999.0,-999.0,65,-99.99,,,-99.99,,2013-04-26 09:20:00,
2013-04-26 05:30:00,35.3,25.2,-100.00,North,-999,-999.0,-999.0,66,-99.99,,,-99.99,,2013-04-26 09:30:00,
2013-04-26 05:40:00,36.7,26.1,-100.00,North,-999,-999.0,-999.0,65,-99.99,,,-99.99,,2013-04-26 09:40:00,
2013-04-26 05:50:00,36.9,26.2,-100.00,North,-999,-999.0,-999.0,65,-99.99,,,-99.99,,2013-04-26 09:50:00,
2013-04-26 06:00:00,36.4,25.7,-100.00,North,-999,-999.0,-999.0,65,-99.99,,,-99.99,,2013-04-26 10:00:00,
2013-04-26 06:10:00,37.4,26.4,-100.00,North,-999,-999.0,-999.0,64,-99.99,,,-99.99,,2013-04-26 10:10:00,
2013-04-26 06:20:00,38.0,26.6,-100.00,North,-999,-999.0,-999.0,63,-99.99,,,-99.99,,2013-04-26 10:20:00,
2013-04-26 06:30:00,38.9,27.0,-100.00,North,-999,-999.0,-999.0,62,-99.99,,,-99.99,,2013-04-26 10:30:00,
2013-04-26 06:40:00,39.4,27.5,-100.00,North,-999,-999.0,-999.0,62,-99.99,,,-99.99,,2013-04-26 10:40:00,
2013-04-26 06:50:00,39.2,28.0,-100.00,North,-999,-999.0,-999.0,64,-99.99,,,-99.99,,2013-04-26 10:50:00,
2013-04-26 07:00:00,41.2,28.8,-100.00,North,-999,-999.0,-999.0,61,-99.99,,,-99.99,,2013-04-26 11:00:00,
2013-04-26 07:10:00,42.8,29.5,-100.00,North,-999,-999.0,-999.0,59,-99.99,,,-99.99,,2013-04-26 11:10:00,
2013-04-26 07:20:00,43.6,30.2,-100.00,North,-999,-999.0,-999.0,59,-99.99,,,-99.99,,2013-04-26 11:20:00,
2013-04-26 07:30:00,44.3,30.4,-100.00,North,-999,-999.0,-999.0,58,-99.99,,,-99.99,,2013-04-26 11:30:00,
2013-04-26 07:40:00,45.2,30.4,-100.00,North,-999,-999.0,-999.0,56,-99.99,,,-99.99,,2013-04-26 11:40:00,
2013-04-26 07:50:00,46.4,31.6,-100.00,North,-999,-999.0,-999.0,56,-99.99,,,-99.99,,2013-04-26 11:50:00,
2013-04-26 08:00:00,46.8,31.5,-100.00,North,-999,-999.0,-999.0,55,-99.99,,,-99.99,,2013-04-26 12:00:00,
2013-04-26 08:10:00,47.5,31.6,-100.00,North,-999,-999.0,-999.0,54,-99.99,,,-99.99,,2013-04-26 12:10:00,
2013-04-26 08:20:00,49.0,32.5,-100.00,North,-999,-999.0,-999.0,53,-99.99,,,-99.99,,2013-04-26 12:20:00,
2013-04-26 08:30:00,49.7,32.7,-100.00,North,-999,-999.0,-999.0,52,-99.99,,,-99.99,,2013-04-26 12:30:00,
2013-04-26 08:40:00,50.4,33.4,-100.00,North,-999,-999.0,-999.0,52,-99.99,,,-99.99,,2013-04-26 12:40:00,
2013-04-26 08:50:00,52.2,34.7,-100.00,North,-999,-999.0,-999.0,51,-99.99,,,-99.99,,2013-04-26 12:50:00,
2013-04-26 09:00:00,52.0,33.4,-100.00,North,-999,-999.0,-999.0,49,-99.99,,,-99.99,,2013-04-26 13:00:00,
2013-04-26 09:10:00,53.3,34.2,-100.00,North,-999,-999.0,-999.0,48,-99.99,,,-99.99,,2013-04-26 13:10:00,
2013-04-26 09:20:00,54.5,35.2,-100.00,North,-999,-999.0,-999.0,48,-99.99,,,-99.99,,2013-04-26 13:20:00,
2013-04-26 09:30:00,54.5,34.2,-100.00,North,-999,-999.0,-999.0,46,-99.99,,,-99.99,,2013-04-26 13:30:00,
2013-04-26 09:40:00,55.1,33.6,-100.00,North,-999,-999.0,-999.0,44,-99.99,,,-99.99,,2013-04-26 13:40:00,
2013-04-26 09:50:00,56.9,35.8,-100.00,North,-999,-999.0,-999.0,45,-99.99,,,-99.99,,2013-04-26 13:50:00,
2013-04-26 10:00:00,58.1,36.3,-100.00,North,-999,-999.0,-999.0,44,-99.99,,,-99.99,,2013-04-26 14:00:00,
2013-04-26 10:10:00,58.5,35.4,-100.00,North,-999,-999.0,-999.0,42,-99.99,,,-99.99,,2013-04-26 14:10:00,
2013-04-26 10:20:00,60.7,36.9,-100.00,North,-999,-999.0,-999.0,41,-99.99,,,-99.99,,2013-04-26 14:20:00,
2013-04-26 10:30:00,60.5,36.7,-100.00,North,-999,-999.0,-999.0,41,-99.99,,,-99.99,,2013-04-26 14:30:00,
2013-04-26 10:40:00,60.8,35.1,-100.00,North,-999,-999.0,-999.0,38,-99.99,,,-99.99,,2013-04-26 14:40:00,
2013-04-26 10:50:00,61.9,36.7,-100.00,North,-999,-999.0,-999.0,39,-99.99,,,-99.99,,2013-04-26 14:50:00,
2013-04-26 11:00:00,63.0,36.3,-100.00,North,-999,-999.0,-999.0,37,-99.99,,,-99.99,,2013-04-26 15:00:00,
2013-04-26 11:10:00,63.7,36.3,-100.00,North,-999,-999.0,-999.0,36,-99.99,,,-99.99,,2013-04-26 15:10:00,
2013-04-26 11:20:00,63.2,35.1,-100.00,North,-999,-999.0,-999.0,35,-99.99,,,-99.99,,2013-04-26 15:20:00,
2013-04-26 11:30:00,65.2,36.9,-100.00,North,-999,-999.0,-999.0,35,-99.99,,,-99.99,,2013-04-26 15:30:00,
2013-04-26 11:40:00,64.8,36.5,-100.00,North,-999,-999.0,-999.0,35,-99.99,,,-99.99,,2013-04-26 15:40:00,
2013-04-26 11:50:00,66.4,37.2,-100.00,North,-999,-999.0,-999.0,34,-99.99,,,-99.99,,2013-04-26 15:50:00,
2013-04-26 12:00:00,61.9,30.9,-100.00,North,-999,-999.0,-999.0,31,-99.99,,,-99.99,,2013-04-26 16:00:00,
2013-04-26 12:10:00,61.7,31.5,-100.00,North,-999,-999.0,-999.0,32,-99.99,,,-99.99,,2013-04-26 16:10:00,
2013-04-26 12:20:00,62.1,31.1,-100.00,North,-999,-999.0,-999.0,31,-99.99,,,-99.99,,2013-04-26 16:20:00,
2013-04-26 12:30:00,66.6,35.8,-100.00,North,-999,-999.0,-999.0,32,-99.99,,,-99.99,,2013-04-26 16:30:00,
2013-04-26 12:40:00,69.7,36.9,-100.00,North,-999,-999.0,-999.0,30,-99.99,,,-99.99,,2013-04-26 16:40:00,
2013-04-26 12:50:00,71.8,38.7,-100.00,North,-999,-999.0,-999.0,30,-99.99,,,-99.99,,2013-04-26 16:50:00,
2013-04-26 13:00:00,61.9,28.4,-100.00,North,-999,-999.0,-999.0,28,-99.99,,,-99.99,,2013-04-26 17:00:00,
2013-04-26 13:10:00,63.9,29.3,-100.00,North,-999,-999.0,-999.0,27,-99.99,,,-99.99,,2013-04-26 17:10:00,
2013-04-26 13:20:00,68.6,35.1,-100.00,North,-999,-999.0,-999.0,29,-99.99,,,-99.99,,2013-04-26 17:20:00,
2013-04-26 13:30:00,68.4,34.0,-100.00,North,-999,-999.0,-999.0,28,-99.99,,,-99.99,,2013-04-26 17:30:00,
2013-04-26 13:40:00,65.9,31.8,-100.00,North,-999,-999.0,-999.0,28,-99.99,,,-99.99,,2013-04-26 17:40:00,
2013-04-26 13:50:00,65.2,32.2,-100.00,North,-999,-999.0,-999.0,29,-99.99,,,-99.99,,2013-04-26 17:50:00,
2013-04-26 14:00:00,68.8,34.3,-100.00,North,-999,-999.0,-999.0,28,-99.99,,,-99.99,,2013-04-26 18:00:00,
2013-04-26 14:10:00,65.5,31.5,-100.00,North,-999,-999.0,-999.0,28,-99.99,,,-99.99,,2013-04-26 18:10:00,
2013-04-26 14:20:00,69.5,35.8,-100.00,North,-999,-999.0,-999.0,29,-99.99,,,-99.99,,2013-04-26 18:20:00,
2013-04-26 14:30:00,65.9,32.7,-100.00,North,-999,-999.0,-999.0,29,-99.99,,,-99.99,,2013-04-26 18:30:00,
2013-04-26 14:40:00,65.3,32.2,-100.00,North,-999,-999.0,-999.0,29,-99.99,,,-99.99,,2013-04-26 18:40:00,
2013-04-26 14:50:00,62.5,28.9,-100.00,North,-999,-999.0,-999.0,28,-99.99,,,-99.99,,2013-04-26 18:50:00,
2013-04-26 15:00:00,63.4,30.6,-100.00,North,-999,-999.0,-999.0,29,-99.99,,,-99.99,,2013-04-26 19:00:00,
2013-04-26 15:10:00,63.0,30.2,-100.00,North,-999,-999.0,-999.0,29,-99.99,,,-99.99,,2013-04-26 19:10:00,
2013-04-26 15:20:00,65.0,32.7,-100.00,North,-999,-999.0,-999.0,30,-99.99,,,-99.99,,2013-04-26 19:20:00,
2013-04-26 15:30:00,64.3,32.2,-100.00,North,-999,-999.0,-999.0,30,-99.99,,,-99.99,,2013-04-26 19:30:00,
2013-04-26 15:40:00,63.0,31.1,-100.00,North,-999,-999.0,-999.0,30,-99.99,,,-99.99,,2013-04-26 19:40:00,
2013-04-26 15:50:00,64.1,33.6,-100.00,North,-999,-999.0,-999.0,32,-99.99,,,-99.99,,2013-04-26 19:50:00,
2013-04-26 16:00:00,66.6,34.2,-100.00,North,-999,-999.0,-999.0,30,-99.99,,,-99.99,,2013-04-26 20:00:00,
2013-04-26 16:10:00,67.3,32.2,-100.00,North,-999,-999.0,-999.0,27,-99.99,,,-99.99,,2013-04-26 20:10:00,
2013-04-26 16:20:00,64.3,30.6,-100.00,North,-999,-999.0,-999.0,28,-99.99,,,-99.99,,2013-04-26 20:20:00,
2013-04-26 16:30:00,65.7,32.5,-100.00,North,-999,-999.0,-999.0,29,-99.99,,,-99.99,,2013-04-26 20:30:00,
2013-04-26 16:40:00,64.6,29.8,-100.00,North,-999,-999.0,-999.0,27,-99.99,,,-99.99,,2013-04-26 20:40:00,
2013-04-26 16:50:00,64.3,29.7,-100.00,North,-999,-999.0,-999.0,27,-99.99,,,-99.99,,2013-04-26 20:50:00,
2013-04-26 17:00:00,66.4,30.6,-100.00,North,-999,-999.0,-999.0,26,-99.99,,,-99.99,,2013-04-26 21:00:00,
2013-04-26 17:10:00,64.8,30.0,-100.00,North,-999,-999.0,-999.0,27,-99.99,,,-99.99,,2013-04-26 21:10:00,
2013-04-26 17:20:00,63.0,31.8,-100.00,North,-999,-999.0,-999.0,31,-99.99,,,-99.99,,2013-04-26 21:20:00,
2013-04-26 17:30:00,61.7,33.8,-100.00,North,-999,-999.0,-999.0,35,-99.99,,,-99.99,,2013-04-26 21:30:00,
2013-04-26 17:40:00,62.1,35.6,-100.00,North,-999,-999.0,-999.0,37,-99.99,,,-99.99,,2013-04-26 21:40:00,
2013-04-26 17:50:00,61.0,35.2,-100.00,North,-999,-999.0,-999.0,38,-99.99,,,-99.99,,2013-04-26 21:50:00,
2013-04-26 18:00:00,58.7,35.1,-100.00,North,-999,-999.0,-999.0,41,-99.99,,,-99.99,,2013-04-26 22:00:00,
2013-04-26 18:10:00,57.6,35.8,-100.00,North,-999,-999.0,-999.0,44,-99.99,,,-99.99,,2013-04-26 22:10:00,
2013-04-26 18:20:00,57.2,36.1,-100.00,North,-999,-999.0,-999.0,45,-99.99,,,-99.99,,2013-04-26 22:20:00,
2013-04-26 18:30:00,56.9,36.9,-100.00,North,-999,-999.0,-999.0,47,-99.99,,,-99.99,,2013-04-26 22:30:00,
2013-04-26 18:40:00,56.5,37.0,-100.00,North,-999,-999.0,-999.0,48,-99.99,,,-99.99,,2013-04-26 22:40:00,
2013-04-26 18:50:00,55.6,36.7,-100.00,North,-999,-999.0,-999.0,49,-99.99,,,-99.99,,2013-04-26 22:50:00,
2013-04-26 19:00:00,54.7,36.5,-100.00,North,-999,-999.0,-999.0,50,-99.99,,,-99.99,,2013-04-26 23:00:00,
2013-04-26 19:10:00,54.2,36.5,-100.00,North,-999,-999.0,-999.0,51,-99.99,,,-99.99,,2013-04-26 23:10:00,
2013-04-26 19:20:00,53.6,36.3,-100.00,North,-999,-999.0,-999.0,52,-99.99,,,-99.99,,2013-04-26 23:20:00,
2013-04-26 19:30:00,53.5,36.9,-100.00,North,-999,-999.0,-999.0,53,-99.99,,,-99.99,,2013-04-26 23:30:00,
2013-04-26 19:40:00,52.9,36.7,-100.00,North,-999,-999.0,-999.0,54,-99.99,,,-99.99,,2013-04-26 23:40:00,
2013-04-26 19:50:00,52.6,36.5,-100.00,North,-999,-999.0,-999.0,54,-99.99,,,-99.99,,2013-04-26 23:50:00,
2013-04-26 20:10:00,51.3,35.6,-100.00,North,-999,-999.0,-999.0,55,-99.99,,,-99.99,,2013-04-27 00:10:00,
2013-04-26 20:20:00,50.0,35.4,-100.00,North,-999,-999.0,-999.0,57,-99.99,,,-99.99,,2013-04-27 00:20:00,
2013-04-26 20:30:00,49.0,34.9,-100.00,North,-999,-999.0,-999.0,58,-99.99,,,-99.99,,2013-04-27 00:30:00,
2013-04-26 20:40:00,47.9,34.7,-100.00,North,-999,-999.0,-999.0,60,-99.99,,,-99.99,,2013-04-27 00:40:00,
2013-04-26 20:50:00,46.6,34.3,-100.00,North,-999,-999.0,-999.0,62,-99.99,,,-99.99,,2013-04-27 00:50:00,
2013-04-26 21:00:00,46.1,34.2,-100.00,North,-999,-999.0,-999.0,63,-99.99,,,-99.99,,2013-04-27 01:00:00,
2013-04-26 21:10:00,45.2,33.8,-100.00,North,-999,-999.0,-999.0,64,-99.99,,,-99.99,,2013-04-27 01:10:00,
2013-04-26 21:20:00,45.2,33.8,-100.00,North,-999,-999.0,-999.0,64,-99.99,,,-99.99,,2013-04-27 01:20:00,
2013-04-26 21:30:00,44.8,33.4,-100.00,North,-999,-999.0,-999.0,64,-99.99,,,-99.99,,2013-04-27 01:30:00,
2013-04-26 21:40:00,43.6,33.4,-100.00,North,-999,-999.0,-999.0,67,-99.99,,,-99.99,,2013-04-27 01:40:00,
2013-04-26 21:50:00,43.4,33.3,-100.00,North,-999,-999.0,-999.0,67,-99.99,,,-99.99,,2013-04-27 01:50:00,
2013-04-26 22:00:00,43.2,33.4,-100.00,North,-999,-999.0,-999.0,68,-99.99,,,-99.99,,2013-04-27 02:00:00,
2013-04-26 22:10:00,42.7,33.3,-100.00,North,-999,-999.0,-999.0,69,-99.99,,,-99.99,,2013-04-27 02:10:00,
2013-04-26 22:20:00,42.1,33.4,-100.00,North,-999,-999.0,-999.0,71,-99.99,,,-99.99,,2013-04-27 02:20:00,
2013-04-26 22:30:00,41.8,33.4,-100.00,North,-999,-999.0,-999.0,72,-99.99,,,-99.99,,2013-04-27 02:30:00,
2013-04-26 22:40:00,41.9,33.6,-100.00,North,-999,-999.0,-999.0,72,-99.99,,,-99.99,,2013-04-27 02:40:00,
2013-04-26 22:50:00,41.6,33.3,-100.00,North,-999,-999.0,-999.0,72,-99.99,,,-99.99,,2013-04-27 02:50:00,
2013-04-26 23:00:00,40.7,32.4,-100.00,North,-999,-999.0,-999.0,72,-99.99,,,-99.99,,2013-04-27 03:00:00,
2013-04-26 23:10:00,41.2,33.3,-100.00,North,-999,-999.0,-999.0,73,-99.99,,,-99.99,,2013-04-27 03:10:00,
2013-04-26 23:20:00,40.3,32.7,-100.00,North,-999,-999.0,-999.0,74,-99.99,,,-99.99,,2013-04-27 03:20:00,
2013-04-26 23:30:00,40.1,32.5,-100.00,North,-999,-999.0,-999.0,74,-99.99,,,-99.99,,2013-04-27 03:30:00,
2013-04-26 23:40:00,40.3,32.7,-100.00,North,-999,-999.0,-999.0,74,-99.99,,,-99.99,,2013-04-27 03:40:00,
2013-04-26 23:50:00,40.5,33.3,-100.00,North,-999,-999.0,-999.0,75,-99.99,,,-99.99,,2013-04-27 03:50:00,